ORSU

Details ICAO ORSU (ISU)
Name SULAYMANIYAH INTL
Region Iraq
Timezone Asia/Baghdad (UTC+3.0)
Plans Departing 12
Arriving 27
Stats Elevation 2,494 ft / 760 m (AMSL)
Location 35.560856° 45.314664°
Runways 1
Magnetic Variation 5.070° E
Sunrise 2018-05-25 01:49:07 UTC / 2018-05-25 04:49:07 Local
Sunset 2018-05-25 16:05:05 UTC / 2018-05-25 19:05:05 Local
Advertisement - Login to hide

Runways

ID Width Length Bearing (true) Bearing (mag) Surface Threshold Offset Overrun Length
13 148 ft / 45 m 11,482 ft / 3,500 m 133.03° 127.96° Concrete 0 ft / 0 m 200 ft / 61 m
31 148 ft / 45 m 11,482 ft / 3,500 m 313.04° 307.97° Concrete 0 ft / 0 m 200 ft / 61 m

Approach Navaids

Runway Type Ident Frequency Range Bearing (true) Bearing (mag) Slope Elevation
31 Localiser RNJ 111.70 MHz 18 nm / 33 km 313.02° 307.95° - 2,505 ft / 764 m (AMSL)
31 Glidescope RNJ 111.70 MHz 10 nm / 19 km 313.03° 307.96° 3.00° 2,440 ft / 744 m (AMSL)
31 DME RNJ 111.70 MHz 18 nm / 33 km - - - 2,440 ft / 744 m (AMSL)

Map

Weather


0- 5 10 15 20 25 30 35+ Temperature / ° C

Clouds and Precipitation
Forecast for 2018-05-25 00:00 UTC. Updated 3 hours ago

Ground ~20,000 ft ~40,000 ft Winds

METAR

ORSU 250100Z 06010KT CAVOK 22/11 Q1011

TAF

TAF ORSU 242300Z 2500/2524 04014KT CAVOK BECMG 2506/2508 16008KT 8000 SCT045 BKN080 TEMPO 2512/2518 8000 -TSRA FEW035CB SCT040 SCT070 BECMG 2518/2520 04010KT CAVOK
Warning: Do not use this data for real-world aviation or navigation. No guarantee of current accuracy is given.